Terminal Aerodrome Forecast
Issued by NWS

Home | Current Version | Previous Version | Graphics & Text | Print | Product List | Glossary On
Versions: 1 2 3 4 5 6 7 8 9 10 11 12 13 14 15 16 17 18 19 20
000
FTUS43 KMPX 232300
TAFRNH
TAF
KRNH 232331Z 2400/2424 35007KT P6SM FEW050
     FM240200 00000KT P6SM SKC
     FM240900 00000KT 4SM BR SKC
     FM241300 16005KT P6SM SCT250
     FM242100 18007KT P6SM FEW120 SCT250=

USA.gov is the U.S. government's official web portal to all federal, state and local government web resources and services.